Time;durP1;ratioP1;P1;durP2;ratioP2;P2;SDS_P1;SDS_P2;PMS_P1;PMS_P2;Temp;Humidity;BMP_temperature;BMP_pressure;BME280_temperature;BME280_humidity;BME280_pressure;Samples;Min_cycle;Max_cycle;Signal;HPM_P1;HPM_P2
2021/09/03 00:02:15;;;;;;;41.80;33.33;;;16.00;99.90;;;;;;5016602;28;20037;-79
2021/09/03 00:04:41;;;;;;;44.17;34.08;;;15.90;99.90;;;;;;5017307;28;20124;-79
2021/09/03 00:07:07;;;;;;;43.35;34.10;;;15.90;99.90;;;;;;5014844;28;20026;-79
2021/09/03 00:09:33;;;;;;;43.05;35.22;;;15.80;99.90;;;;;;5001596;28;20029;-79
2021/09/03 00:11:59;;;;;;;46.00;35.70;;;15.80;99.90;;;;;;5019048;28;20084;-79
2021/09/03 00:14:25;;;;;;;46.53;36.05;;;15.80;99.90;;;;;;5019871;28;20022;-79
2021/09/03 00:16:51;;;;;;;50.13;37.22;;;15.80;99.90;;;;;;5018977;28;20203;-79
2021/09/03 00:19:17;;;;;;;46.83;35.45;;;15.80;99.90;;;;;;5019955;28;20021;-79
2021/09/03 00:21:43;;;;;;;46.30;35.85;;;15.70;99.90;;;;;;5019595;28;20049;-79
2021/09/03 00:24:08;;;;;;;45.05;36.15;;;15.70;99.90;;;;;;5018578;28;20022;-79
2021/09/03 00:26:34;;;;;;;47.15;36.08;;;15.70;99.90;;;;;;5020476;28;20082;-79
2021/09/03 00:29:00;;;;;;;46.35;36.58;;;15.60;99.90;;;;;;5019630;28;20018;-79
2021/09/03 00:31:25;;;;;;;48.88;36.25;;;15.60;99.90;;;;;;5019861;28;20531;-79
2021/09/03 00:33:51;;;;;;;44.30;36.03;;;15.50;99.90;;;;;;5018160;28;20025;-79
2021/09/03 00:36:18;;;;;;;50.08;36.35;;;15.60;99.90;;;;;;5018364;28;20117;-81
2021/09/03 00:38:43;;;;;;;52.03;35.42;;;15.60;99.90;;;;;;5018854;28;20033;-79
2021/09/03 00:41:09;;;;;;;47.30;35.58;;;15.50;99.90;;;;;;5018186;28;20457;-79
2021/09/03 00:43:35;;;;;;;47.38;35.88;;;15.50;99.90;;;;;;5020200;28;20093;-79
2021/09/03 00:46:01;;;;;;;44.13;34.35;;;15.50;99.90;;;;;;5018301;28;20056;-79
2021/09/03 00:48:27;;;;;;;43.33;36.70;;;15.40;99.90;;;;;;5018434;28;20037;-78
2021/09/03 00:50:53;;;;;;;47.80;36.75;;;15.50;99.90;;;;;;5016643;28;20073;-79
2021/09/03 00:53:19;;;;;;;49.00;37.03;;;15.50;99.90;;;;;;5018793;28;20041;-80
2021/09/03 00:55:46;;;;;;;46.38;35.35;;;15.50;99.90;;;;;;5019642;28;20030;-79
2021/09/03 00:58:12;;;;;;;45.72;35.53;;;15.50;99.90;;;;;;5019604;28;20386;-78
2021/09/03 01:00:37;;;;;;;48.97;36.47;;;15.50;99.90;;;;;;5017972;28;20026;-79
2021/09/03 01:03:03;;;;;;;43.42;35.15;;;15.40;99.90;;;;;;5018794;28;20454;-80
2021/09/03 01:05:30;;;;;;;46.60;34.58;;;15.50;99.90;;;;;;5017500;28;20026;-79
2021/09/03 01:07:56;;;;;;;49.10;35.22;;;15.50;99.90;;;;;;5018045;28;20026;-79
2021/09/03 01:10:23;;;;;;;48.90;35.47;;;15.40;99.90;;;;;;5018260;28;20025;-79
2021/09/03 01:12:50;;;;;;;43.63;34.20;;;15.40;99.90;;;;;;5018706;28;20141;-79
2021/09/03 01:15:16;;;;;;;49.58;34.80;;;15.40;99.90;;;;;;5018045;28;20398;-79
2021/09/03 01:17:42;;;;;;;45.60;35.13;;;15.40;99.90;;;;;;5019701;28;20065;-79
2021/09/03 01:20:10;;;;;;;41.72;33.28;;;15.40;99.90;;;;;;5018280;28;20080;-79
2021/09/03 01:22:36;;;;;;;47.42;35.70;;;15.40;99.90;;;;;;5017939;28;20026;-79
2021/09/03 01:25:02;;;;;;;46.90;34.65;;;15.40;99.90;;;;;;5017611;28;20053;-79
2021/09/03 01:27:28;;;;;;;47.65;34.05;;;15.40;99.90;;;;;;5018379;28;20030;-80
2021/09/03 01:29:54;;;;;;;48.78;34.00;;;15.30;99.90;;;;;;5017622;28;20022;-79
2021/09/03 01:32:19;;;;;;;53.67;34.47;;;15.30;99.90;;;;;;5019816;28;20030;-79
2021/09/03 01:34:45;;;;;;;47.10;34.75;;;15.30;99.90;;;;;;5000923;28;20030;-78
2021/09/03 01:37:11;;;;;;;41.25;33.25;;;15.30;99.90;;;;;;5018157;28;20038;-79
2021/09/03 01:39:37;;;;;;;46.08;35.35;;;15.30;99.90;;;;;;5018173;28;20037;-79
2021/09/03 01:42:03;;;;;;;47.28;34.78;;;15.30;99.90;;;;;;5017689;28;20029;-79
2021/09/03 01:44:29;;;;;;;46.85;34.63;;;15.30;99.90;;;;;;5017407;28;20479;-79
2021/09/03 01:46:55;;;;;;;49.33;34.67;;;15.30;99.90;;;;;;5018025;28;20029;-79
2021/09/03 01:49:21;;;;;;;45.88;33.80;;;15.30;99.90;;;;;;5018729;28;20479;-79
2021/09/03 01:51:46;;;;;;;45.22;34.65;;;15.20;99.90;;;;;;5017353;28;20085;-79
2021/09/03 01:54:12;;;;;;;45.90;34.13;;;15.20;99.90;;;;;;5018261;28;20068;-78
2021/09/03 01:56:38;;;;;;;49.60;35.83;;;15.10;99.90;;;;;;5017497;28;20391;-79
2021/09/03 01:59:04;;;;;;;46.17;36.50;;;15.20;99.90;;;;;;5001170;28;20122;-78
2021/09/03 02:01:30;;;;;;;47.35;34.88;;;15.20;99.90;;;;;;5017254;28;20036;-79
2021/09/03 02:03:55;;;;;;;49.03;35.13;;;15.10;99.90;;;;;;5017132;28;20026;-79
2021/09/03 02:06:21;;;;;;;45.72;33.45;;;15.10;99.90;;;;;;5018767;28;20038;-79
2021/09/03 02:08:47;;;;;;;47.22;34.40;;;15.10;99.90;;;;;;5016311;28;20026;-79
2021/09/03 02:11:12;;;;;;;49.20;34.55;;;15.10;99.90;;;;;;5016373;28;20030;-79
2021/09/03 02:13:39;;;;;;;53.60;35.38;;;15.10;99.90;;;;;;5016050;28;20045;-79
2021/09/03 02:16:04;;;;;;;44.85;33.92;;;15.10;99.90;;;;;;5016245;28;20033;-79
2021/09/03 02:18:30;;;;;;;47.03;33.58;;;15.00;99.90;;;;;;5016523;28;20100;-79
2021/09/03 02:20:56;;;;;;;49.47;35.17;;;15.00;99.90;;;;;;5018096;28;20036;-80
2021/09/03 02:23:21;;;;;;;48.95;35.75;;;15.00;99.90;;;;;;5017877;28;20033;-78
2021/09/03 02:25:47;;;;;;;52.22;35.90;;;15.00;99.90;;;;;;5018232;28;20026;-79
2021/09/03 02:28:15;;;;;;;46.03;35.72;;;15.00;99.90;;;;;;5018024;28;20053;-79
2021/09/03 02:30:41;;;;;;;48.22;36.22;;;15.10;99.90;;;;;;5017595;28;20033;-80
2021/09/03 02:33:07;;;;;;;53.58;35.85;;;15.00;99.90;;;;;;5017499;28;20033;-80
2021/09/03 02:35:32;;;;;;;49.08;35.55;;;15.00;99.90;;;;;;5017772;28;20030;-79
2021/09/03 02:37:58;;;;;;;52.15;36.40;;;15.00;99.90;;;;;;5017176;28;20026;-79
2021/09/03 02:40:27;;;;;;;56.97;37.38;;;15.00;99.90;;;;;;5016141;28;20034;-79
2021/09/03 02:42:54;;;;;;;52.95;37.03;;;15.00;99.90;;;;;;5017082;28;20109;-79
2021/09/03 02:45:22;;;;;;;52.88;37.92;;;15.00;99.90;;;;;;5016572;28;20006;-79
2021/09/03 02:47:47;;;;;;;56.33;38.40;;;15.10;99.90;;;;;;5016933;28;20032;-79
2021/09/03 02:50:13;;;;;;;59.72;39.17;;;15.20;99.90;;;;;;5016087;28;20050;-79
2021/09/03 02:52:39;;;;;;;52.90;38.22;;;15.10;99.90;;;;;;4999022;28;20050;-79
2021/09/03 02:55:05;;;;;;;57.40;38.35;;;15.00;99.90;;;;;;5016104;28;20036;-79
2021/09/03 02:57:30;;;;;;;54.53;38.03;;;15.00;99.90;;;;;;5015405;28;20153;-79
2021/09/03 02:59:56;;;;;;;55.67;39.00;;;15.00;99.90;;;;;;5015908;28;20053;-78
2021/09/03 03:02:22;;;;;;;50.47;37.17;;;15.00;99.90;;;;;;5016440;28;20140;-79
2021/09/03 03:04:47;;;;;;;49.67;37.40;;;14.90;99.90;;;;;;5016458;28;20038;-78
2021/09/03 03:07:13;;;;;;;52.08;36.40;;;14.90;99.90;;;;;;5016281;28;20030;-80
2021/09/03 03:09:39;;;;;;;54.10;36.83;;;14.80;99.90;;;;;;5016828;28;20118;-78
2021/09/03 03:12:05;;;;;;;49.53;36.78;;;14.80;99.90;;;;;;5016530;28;20029;-79
2021/09/03 03:14:34;;;;;;;53.60;37.05;;;14.70;99.90;;;;;;5016434;28;20038;-79
2021/09/03 03:17:01;;;;;;;51.08;37.50;;;14.70;99.90;;;;;;5017382;28;20227;-79
2021/09/03 03:19:27;;;;;;;54.28;37.38;;;14.70;99.90;;;;;;5018345;28;20026;-79
2021/09/03 03:21:54;;;;;;;56.60;37.92;;;14.70;99.90;;;;;;5016258;28;20490;-79
2021/09/03 03:24:21;;;;;;;54.20;36.80;;;14.60;99.90;;;;;;5017378;28;20026;-79
2021/09/03 03:26:47;;;;;;;54.72;39.22;;;14.60;99.90;;;;;;5017266;28;20501;-79
2021/09/03 03:29:13;;;;;;;56.78;40.47;;;14.70;99.90;;;;;;5016334;28;20025;-79
2021/09/03 03:31:39;;;;;;;52.58;37.70;;;14.70;99.90;;;;;;5017418;28;20117;-79
2021/09/03 03:34:06;;;;;;;57.28;39.05;;;14.60;99.90;;;;;;5019192;28;20057;-80
2021/09/03 03:36:31;;;;;;;56.47;40.17;;;14.60;99.90;;;;;;5017030;28;20029;-80
2021/09/03 03:38:57;;;;;;;56.65;39.83;;;14.60;99.90;;;;;;5015669;28;20022;-79
2021/09/03 03:41:24;;;;;;;56.65;39.70;;;14.60;99.90;;;;;;4999151;28;20029;-79
2021/09/03 03:43:50;;;;;;;56.10;39.80;;;14.60;99.90;;;;;;5018248;28;20025;-79
2021/09/03 03:46:16;;;;;;;56.50;39.10;;;14.50;99.90;;;;;;5020868;28;20032;-79
2021/09/03 03:48:41;;;;;;;60.30;40.00;;;14.60;99.90;;;;;;5020861;28;20032;-79
2021/09/03 03:51:07;;;;;;;54.72;38.95;;;14.50;99.90;;;;;;5020099;28;20050;-80
2021/09/03 03:53:33;;;;;;;59.03;39.83;;;14.40;99.90;;;;;;5019077;28;20029;-79
2021/09/03 03:55:58;;;;;;;55.63;40.33;;;14.40;99.90;;;;;;5018899;28;20036;-79
2021/09/03 03:58:24;;;;;;;55.38;39.33;;;14.40;99.90;;;;;;5019044;28;20022;-79
2021/09/03 04:00:50;;;;;;;59.80;40.42;;;14.40;99.90;;;;;;5018410;28;20033;-80
2021/09/03 04:03:16;;;;;;;58.58;40.50;;;14.40;99.90;;;;;;5021758;28;20022;-80
2021/09/03 04:05:42;;;;;;;59.17;41.17;;;14.40;99.90;;;;;;5019281;28;20163;-79
2021/09/03 04:08:07;;;;;;;58.47;40.67;;;14.40;99.90;;;;;;5019541;28;20025;-79
2021/09/03 04:10:33;;;;;;;57.80;41.40;;;14.40;99.90;;;;;;5019155;28;20483;-79
2021/09/03 04:12:59;;;;;;;56.75;41.05;;;14.40;99.90;;;;;;5018194;28;20077;-79
2021/09/03 04:15:25;;;;;;;61.17;40.78;;;14.40;99.90;;;;;;5017794;28;20034;-79
2021/09/03 04:17:51;;;;;;;64.70;41.75;;;14.40;99.90;;;;;;5017713;28;20064;-79
2021/09/03 04:20:16;;;;;;;61.20;40.63;;;14.40;99.90;;;;;;5017974;28;20022;-79
2021/09/03 04:22:42;;;;;;;59.70;39.80;;;14.30;99.90;;;;;;5018892;28;20026;-80
2021/09/03 04:25:09;;;;;;;58.78;40.83;;;14.30;99.90;;;;;;5019748;28;20032;-79
2021/09/03 04:27:36;;;;;;;60.53;40.63;;;14.30;99.90;;;;;;5019726;28;20029;-79
2021/09/03 04:30:03;;;;;;;59.42;41.30;;;14.30;99.90;;;;;;5020749;28;20026;-80
2021/09/03 04:32:29;;;;;;;63.10;42.03;;;14.30;99.90;;;;;;5020248;28;20479;-80
2021/09/03 04:34:55;;;;;;;56.15;40.28;;;14.20;99.90;;;;;;5020722;28;20170;-80
2021/09/03 04:37:20;;;;;;;61.00;41.17;;;14.20;99.90;;;;;;5019472;28;20061;-80
2021/09/03 04:39:46;;;;;;;58.50;40.08;;;14.10;99.90;;;;;;5019704;28;20056;-80
2021/09/03 04:42:11;;;;;;;61.78;41.30;;;14.10;99.90;;;;;;5019077;28;20129;-80
2021/09/03 04:44:37;;;;;;;59.70;42.53;;;14.10;99.90;;;;;;5020544;28;20060;-80
2021/09/03 04:47:03;;;;;;;62.90;42.03;;;14.10;99.90;;;;;;5019502;28;20382;-79
2021/09/03 04:49:29;;;;;;;60.83;42.03;;;14.10;99.90;;;;;;5020721;28;20564;-80
2021/09/03 04:51:55;;;;;;;67.93;43.58;;;14.10;99.90;;;;;;4981432;28;1126361;-79
2021/09/03 04:54:20;;;;;;;65.40;43.13;;;14.20;99.90;;;;;;5020285;28;20030;-79
2021/09/03 04:56:46;;;;;;;68.70;43.58;;;14.20;99.90;;;;;;5019065;28;20033;-79
2021/09/03 04:59:11;;;;;;;66.43;44.17;;;14.20;99.90;;;;;;5017585;28;20242;-79
2021/09/03 05:01:37;;;;;;;72.22;44.80;;;14.20;99.90;;;;;;5017013;28;20092;-78
2021/09/03 05:04:03;;;;;;;63.75;41.75;;;14.20;99.90;;;;;;5017831;28;20449;-79
2021/09/03 05:06:28;;;;;;;60.63;41.85;;;14.10;99.90;;;;;;5020262;28;20036;-79
2021/09/03 05:08:54;;;;;;;66.25;42.63;;;14.10;99.90;;;;;;5018413;28;20026;-79
2021/09/03 05:11:20;;;;;;;67.93;42.60;;;14.10;99.90;;;;;;5020652;28;20026;-80
2021/09/03 05:13:45;;;;;;;66.88;41.95;;;14.20;99.90;;;;;;5018300;28;20022;-79
2021/09/03 05:16:11;;;;;;;61.17;41.15;;;14.30;99.90;;;;;;5018843;28;20037;-79
2021/09/03 05:18:37;;;;;;;65.05;40.42;;;14.20;99.90;;;;;;5019106;28;20029;-80
2021/09/03 05:21:03;;;;;;;62.22;41.30;;;14.10;99.90;;;;;;5019166;28;20029;-80
2021/09/03 05:23:28;;;;;;;61.67;40.97;;;14.00;99.90;;;;;;5019499;28;20483;-79
2021/09/03 05:25:54;;;;;;;58.85;40.42;;;14.00;99.90;;;;;;5018847;28;20098;-79
2021/09/03 05:28:20;;;;;;;59.33;39.88;;;14.00;99.90;;;;;;5019158;28;20100;-79
2021/09/03 05:30:46;;;;;;;60.63;41.45;;;14.10;99.90;;;;;;5018618;28;20032;-80
2021/09/03 05:33:11;;;;;;;63.85;41.85;;;14.00;99.90;;;;;;5018649;28;20089;-80
2021/09/03 05:35:37;;;;;;;60.10;41.53;;;14.00;99.90;;;;;;5018696;28;20030;-80
2021/09/03 05:38:05;;;;;;;68.80;42.08;;;14.00;99.90;;;;;;5017602;28;20038;-79
2021/09/03 05:40:33;;;;;;;57.30;40.17;;;14.10;99.90;;;;;;5014716;28;20052;-80
2021/09/03 05:42:58;;;;;;;66.05;42.42;;;14.10;99.90;;;;;;5014580;28;20034;-80
2021/09/03 05:45:24;;;;;;;62.13;40.78;;;14.10;99.90;;;;;;5013296;28;20384;-78
2021/09/03 05:47:50;;;;;;;61.15;41.35;;;14.10;99.90;;;;;;5014135;28;20021;-79
2021/09/03 05:50:16;;;;;;;66.07;42.53;;;14.20;99.90;;;;;;5014936;28;20022;-79
2021/09/03 05:52:42;;;;;;;62.28;41.90;;;14.40;99.90;;;;;;5009587;28;20060;-79
2021/09/03 05:55:09;;;;;;;74.53;42.88;;;14.50;99.90;;;;;;5011871;28;20030;-79
2021/09/03 05:57:34;;;;;;;69.72;43.17;;;14.60;99.90;;;;;;5009967;28;20037;-79
2021/09/03 06:00:00;;;;;;;63.38;41.92;;;14.60;99.90;;;;;;5005099;28;20033;-79
2021/09/03 06:02:26;;;;;;;67.13;42.30;;;14.70;99.90;;;;;;5005090;28;20030;-80
2021/09/03 06:04:52;;;;;;;64.85;40.58;;;14.70;99.90;;;;;;5006185;28;20038;-79
2021/09/03 06:07:18;;;;;;;59.22;40.65;;;14.60;99.90;;;;;;5016823;28;20243;-78
2021/09/03 06:09:43;;;;;;;58.97;40.53;;;14.70;99.90;;;;;;5009172;28;20030;-80
2021/09/03 06:12:10;;;;;;;92.82;41.28;;;14.80;99.90;;;;;;5003809;28;20040;-83
2021/09/03 06:14:35;;;;;;;56.90;40.33;;;14.80;99.90;;;;;;5002087;28;20105;-81
2021/09/03 06:17:01;;;;;;;68.28;40.78;;;14.80;99.90;;;;;;5024005;28;20464;-80
2021/09/03 06:19:27;;;;;;;61.95;38.67;;;14.90;99.90;;;;;;5012508;28;20030;-82
2021/09/03 06:21:53;;;;;;;62.25;38.28;;;15.00;99.90;;;;;;5013698;28;20002;-82
2021/09/03 06:24:31;;;;;;;59.10;40.60;;;15.00;99.90;;;;;;5002677;28;20049;-85
2021/09/03 06:26:58;;;;;;;58.33;38.00;;;15.20;99.90;;;;;;5015318;28;20034;-80
2021/09/03 06:32:35;;;;;;;62.88;38.58;;;15.40;99.90;;;;;;5010437;28;20074;-83
2021/09/03 06:35:04;;;;;;;51.55;36.35;;;15.40;99.90;;;;;;5010046;28;20048;-79
2021/09/03 06:37:30;;;;;;;51.95;37.40;;;15.40;99.90;;;;;;5009790;28;20052;-80
2021/09/03 06:39:57;;;;;;;56.75;40.28;;;15.50;99.90;;;;;;5009477;28;20446;-79
2021/09/03 06:42:23;;;;;;;55.25;37.03;;;15.60;99.90;;;;;;5008296;28;20032;-79
2021/09/03 06:44:50;;;;;;;56.22;37.47;;;15.70;99.90;;;;;;4998185;28;20495;-78
2021/09/03 06:47:16;;;;;;;54.17;37.80;;;15.70;99.90;;;;;;4990390;28;20053;-79
2021/09/03 06:49:44;;;;;;;53.05;37.65;;;15.80;99.90;;;;;;4995627;28;20064;-78
2021/09/03 06:52:11;;;;;;;52.88;37.00;;;15.80;99.90;;;;;;4987825;28;20069;-78
2021/09/03 06:54:38;;;;;;;53.25;38.08;;;15.80;99.90;;;;;;4983894;28;20021;-78
2021/09/03 06:57:04;;;;;;;52.00;37.33;;;15.80;99.90;;;;;;4974750;28;20022;-78
2021/09/03 06:59:30;;;;;;;54.33;36.03;;;15.90;99.90;;;;;;5004822;28;20060;-78
2021/09/03 07:01:57;;;;;;;55.95;38.63;;;16.10;99.90;;;;;;5003772;28;20082;-80
2021/09/03 07:04:23;;;;;;;55.28;36.75;;;16.20;99.90;;;;;;5003913;28;20022;-78
2021/09/03 07:06:50;;;;;;;48.53;34.33;;;16.30;99.90;;;;;;5004520;28;20160;-78
2021/09/03 07:09:16;;;;;;;53.55;36.22;;;16.40;99.90;;;;;;5006570;28;20022;-78
2021/09/03 07:11:42;;;;;;;49.10;36.13;;;16.60;99.90;;;;;;4999037;28;20049;-79
2021/09/03 07:14:08;;;;;;;49.17;35.70;;;16.60;99.90;;;;;;5007781;28;20096;-80
2021/09/03 07:16:35;;;;;;;52.47;37.53;;;16.80;99.90;;;;;;5010073;28;20036;-81
2021/09/03 07:19:04;;;;;;;54.38;38.13;;;17.10;99.90;;;;;;5009563;28;20053;-82
2021/09/03 07:21:30;;;;;;;55.08;38.50;;;17.20;99.90;;;;;;5007045;28;20057;-79
2021/09/03 07:24:00;;;;;;;52.55;36.78;;;17.20;99.90;;;;;;5005816;28;20034;-81
2021/09/03 07:26:29;;;;;;;48.95;36.47;;;17.20;99.90;;;;;;5005829;28;20038;-80
2021/09/03 07:28:56;;;;;;;46.58;35.70;;;17.40;99.90;;;;;;5005777;28;20018;-81
2021/09/03 07:31:22;;;;;;;52.65;33.55;;;17.70;99.90;;;;;;4995615;28;20484;-78
2021/09/03 07:33:48;;;;;;;44.42;30.95;;;18.10;99.90;;;;;;5001426;28;20118;-78
2021/09/03 07:36:13;;;;;;;35.78;28.63;;;19.20;99.90;;;;;;5006416;28;20080;-79
2021/09/03 07:38:39;;;;;;;39.33;27.60;;;20.30;99.90;;;;;;4992595;28;20045;-79
2021/09/03 07:41:05;;;;;;;34.58;28.05;;;21.40;99.90;;;;;;5004101;28;20018;-78
2021/09/03 07:43:31;;;;;;;35.50;26.30;;;22.00;99.90;;;;;;5006103;28;20129;-79
2021/09/03 07:45:57;;;;;;;35.63;25.88;;;23.10;99.90;;;;;;5004334;28;20120;-79
2021/09/03 07:48:23;;;;;;;35.10;25.55;;;24.00;99.90;;;;;;5008015;28;20029;-79
2021/09/03 07:50:49;;;;;;;32.75;25.85;;;24.50;99.90;;;;;;5008139;28;20042;-78
2021/09/03 07:53:15;;;;;;;32.80;27.02;;;25.20;99.90;;;;;;4991677;28;20031;-79
2021/09/03 07:55:40;;;;;;;32.70;26.08;;;25.50;99.90;;;;;;5005006;28;20365;-78
2021/09/03 07:58:07;;;;;;;31.00;25.65;;;25.40;99.90;;;;;;4994925;28;20026;-80
2021/09/03 08:00:34;;;;;;;33.80;27.20;;;25.60;99.90;;;;;;5006956;28;20471;-77
2021/09/03 08:02:59;;;;;;;33.03;25.73;;;24.90;99.90;;;;;;5007870;28;20041;-77
2021/09/03 08:05:25;;;;;;;30.58;25.77;;;25.20;99.90;;;;;;5009134;28;20033;-78
2021/09/03 08:07:53;;;;;;;33.88;26.45;;;25.60;99.90;;;;;;4997279;28;20376;-78
2021/09/03 08:10:19;;;;;;;32.83;26.85;;;26.40;99.90;;;;;;4998969;28;20030;-78
2021/09/03 08:12:45;;;;;;;32.20;26.00;;;26.40;99.90;;;;;;5003540;28;20387;-80
2021/09/03 08:15:13;;;;;;;31.00;25.65;;;26.10;99.90;;;;;;5006127;28;20101;-81
2021/09/03 08:17:39;;;;;;;33.97;26.30;;;26.40;99.90;;;;;;4999126;28;20140;-79
2021/09/03 08:20:07;;;;;;;32.03;26.23;;;26.60;99.90;;;;;;5008201;28;20136;-80
2021/09/03 08:22:35;;;;;;;35.08;26.15;;;26.90;99.90;;;;;;5008282;28;20116;-81
2021/09/03 08:25:03;;;;;;;31.98;24.77;;;26.70;99.90;;;;;;5001090;28;20041;-83
2021/09/03 08:27:29;;;;;;;29.50;24.63;;;26.40;99.90;;;;;;5017142;28;20384;-81
2021/09/03 08:29:55;;;;;;;30.20;24.52;;;26.90;99.40;;;;;;5007532;28;20034;-80
2021/09/03 08:32:20;;;;;;;29.17;24.52;;;26.30;99.90;;;;;;5010366;28;20040;-79
2021/09/03 08:34:46;;;;;;;28.38;22.83;;;26.10;99.90;;;;;;5006913;28;20040;-78
2021/09/03 08:37:12;;;;;;;26.75;21.67;;;26.70;99.90;;;;;;5000024;28;20055;-78
2021/09/03 08:39:38;;;;;;;31.02;23.73;;;27.10;99.50;;;;;;4996358;28;20033;-78
2021/09/03 08:42:04;;;;;;;29.05;22.98;;;26.90;99.70;;;;;;5009892;28;20119;-77
2021/09/03 08:44:31;;;;;;;27.75;22.77;;;26.90;99.90;;;;;;5001413;28;20062;-77
2021/09/03 08:46:57;;;;;;;33.67;23.10;;;27.10;99.60;;;;;;5010463;28;20065;-77
2021/09/03 08:49:23;;;;;;;29.80;23.05;;;26.90;99.60;;;;;;5005240;28;20100;-78
2021/09/03 08:51:49;;;;;;;31.92;22.35;;;27.30;99.30;;;;;;5008034;28;20053;-77
2021/09/03 08:54:15;;;;;;;28.42;23.25;;;27.70;98.60;;;;;;5007022;28;20836;-77
2021/09/03 08:56:40;;;;;;;25.88;21.58;;;27.90;97.90;;;;;;5003656;28;20069;-78
2021/09/03 08:59:06;;;;;;;33.88;24.02;;;27.60;98.20;;;;;;5005195;28;20034;-78
2021/09/03 09:01:32;;;;;;;26.42;22.20;;;27.00;99.20;;;;;;4997802;28;20034;-78
2021/09/03 09:04:13;;;;;;;27.88;20.80;;;27.30;98.60;;;;;;5000266;28;20022;-77
2021/09/03 09:06:49;;;;;;;31.00;22.30;;;28.10;97.40;;;;;;5008094;28;20071;-77
2021/09/03 09:09:35;;;;;;;25.60;21.33;;;28.30;97.10;;;;;;5009736;28;20033;-77
2021/09/03 09:12:13;;;;;;;23.15;20.48;;;27.80;97.80;;;;;;5006331;28;20080;-78
2021/09/03 09:15:05;;;;;;;28.60;19.70;;;28.00;97.30;;;;;;5007404;28;20115;-77
2021/09/03 09:17:35;;;;;;;;;;;27.90;97.30;;;;;;5008859;28;20052;-78
2021/09/03 09:20:03;;;;;;;26.92;21.75;;;28.60;96.40;;;;;;4991563;28;20358;-77
2021/09/03 09:22:51;;;;;;;29.50;21.63;;;28.30;96.40;;;;;;5002261;28;20037;-78
2021/09/03 09:25:21;;;;;;;24.10;21.40;;;28.50;96.80;;;;;;5005496;28;20334;-78
2021/09/03 09:27:48;;;;;;;25.10;21.38;;;28.60;95.80;;;;;;5006603;28;20026;-79
2021/09/03 09:30:27;;;;;;;22.85;19.75;;;28.50;96.70;;;;;;4995025;28;20034;-78
2021/09/03 09:33:13;;;;;;;25.50;18.98;;;28.40;96.20;;;;;;5001044;28;20033;-78
2021/09/03 09:35:49;;;;;;;22.25;18.30;;;28.30;96.70;;;;;;5013498;28;20033;-78
2021/09/03 09:38:18;;;;;;;21.80;16.85;;;28.90;96.00;;;;;;5005586;28;20030;-77
2021/09/03 09:40:51;;;;;;;23.10;17.48;;;28.60;95.80;;;;;;5002432;28;20026;-79
2021/09/03 09:43:35;;;;;;;21.55;17.75;;;28.90;95.30;;;;;;5007315;28;20048;-78
2021/09/03 09:46:21;;;;;;;26.95;18.70;;;29.10;95.00;;;;;;5005360;28;20095;-78
2021/09/03 09:48:50;;;;;;;23.20;18.83;;;29.20;95.00;;;;;;4999712;28;20036;-78
2021/09/03 09:51:22;;;;;;;27.42;17.45;;;28.60;95.80;;;;;;5011742;28;20081;-79
2021/09/03 09:53:55;;;;;;;22.20;15.95;;;28.70;95.20;;;;;;5005470;28;20038;-78
2021/09/03 09:56:23;;;;;;;24.55;16.25;;;28.30;94.90;;;;;;5008032;28;20026;-78
2021/09/03 09:58:54;;;;;;;25.23;15.80;;;28.50;94.70;;;;;;5007738;28;20045;-78
2021/09/03 10:01:20;;;;;;;20.23;14.70;;;28.40;95.60;;;;;;5009234;28;20379;-78
2021/09/03 10:03:49;;;;;;;16.63;14.60;;;28.80;94.60;;;;;;5013921;28;20049;-78
2021/09/03 10:06:23;;;;;;;21.25;15.23;;;29.20;94.30;;;;;;5012417;28;20034;-78
2021/09/03 10:08:50;;;;;;;18.20;14.32;;;29.10;93.80;;;;;;4999918;28;20546;-79
2021/09/03 10:11:17;;;;;;;17.23;15.15;;;28.80;94.10;;;;;;4986827;28;20076;-79
2021/09/03 10:13:43;;;;;;;18.92;14.63;;;29.00;93.60;;;;;;5018621;28;20037;-78
2021/09/03 10:16:09;;;;;;;18.73;15.43;;;28.70;94.70;;;;;;5018545;28;20098;-79
2021/09/03 10:18:37;;;;;;;23.02;14.93;;;28.80;94.10;;;;;;5011747;28;20033;-79
2021/09/03 10:21:04;;;;;;;18.67;13.63;;;29.20;93.60;;;;;;5010999;28;20022;-79
2021/09/03 10:23:49;;;;;;;16.17;13.40;;;28.60;94.50;;;;;;5015522;28;20030;-79
2021/09/03 10:26:17;;;;;;;26.42;14.35;;;28.70;93.70;;;;;;5010880;28;20026;-82
2021/09/03 10:28:43;;;;;;;29.17;14.07;;;28.50;94.10;;;;;;4999060;28;20022;-83
2021/09/03 10:31:09;;;;;;;24.25;14.07;;;28.30;94.60;;;;;;5012610;28;20390;-80
2021/09/03 10:33:37;;;;;;;22.60;13.88;;;28.60;93.90;;;;;;5010876;28;20120;-81
2021/09/03 10:36:04;;;;;;;19.40;13.35;;;29.00;93.70;;;;;;5005542;28;20121;-80
2021/09/03 10:38:33;;;;;;;13.90;11.60;;;29.30;93.70;;;;;;5006199;28;20062;-82
2021/09/03 10:41:00;;;;;;;15.65;11.73;;;29.80;93.00;;;;;;5002398;28;20033;-81
2021/09/03 10:43:43;;;;;;;18.83;11.68;;;29.70;92.10;;;;;;5012004;28;20076;-82
2021/09/03 10:46:10;;;;;;;14.77;11.70;;;29.80;92.40;;;;;;5012657;28;20523;-81
2021/09/03 10:48:35;;;;;;;17.50;11.27;;;30.30;91.30;;;;;;5007413;28;20021;-79
2021/09/03 10:51:03;;;;;;;17.25;12.38;;;30.10;91.10;;;;;;5005164;28;20052;-80
2021/09/03 10:53:37;;;;;;;17.73;11.80;;;30.10;90.70;;;;;;5015294;28;20025;-81
2021/09/03 10:56:20;;;;;;;16.52;13.15;;;29.60;91.60;;;;;;5019357;28;20032;-80
2021/09/03 10:59:03;;;;;;;14.30;11.23;;;30.20;91.70;;;;;;5008512;28;20390;-81
2021/09/03 11:01:48;;;;;;;22.60;11.88;;;30.50;91.00;;;;;;5009533;28;20022;-82
2021/09/03 11:04:16;;;;;;;18.38;12.20;;;30.30;91.70;;;;;;5026341;28;20430;-79
2021/09/03 11:07:05;;;;;;;16.20;11.85;;;30.10;90.50;;;;;;5015863;28;20076;-82
2021/09/03 11:09:31;;;;;;;14.00;11.05;;;30.00;91.20;;;;;;4997045;28;20130;-79
2021/09/03 11:12:05;;;;;;;14.50;11.45;;;30.20;90.70;;;;;;4992693;28;20026;-78
2021/09/03 11:14:32;;;;;;;14.23;11.30;;;30.40;90.00;;;;;;4990035;28;20084;-78
2021/09/03 11:17:03;;;;;;;16.20;11.85;;;30.40;89.50;;;;;;5002195;28;20030;-81
2021/09/03 11:19:38;;;;;;;14.27;11.90;;;30.20;90.40;;;;;;5012467;28;20413;-80
2021/09/03 11:22:13;;;;;;;14.98;11.50;;;30.50;89.40;;;;;;5006668;28;20273;-80
2021/09/03 11:24:51;;;;;;;15.02;10.50;;;31.10;89.60;;;;;;5010231;28;20026;-77
2021/09/03 11:27:20;;;;;;;12.90;11.20;;;31.20;88.10;;;;;;5012577;28;20414;-78
2021/09/03 11:30:13;;;;;;;14.25;10.77;;;31.10;88.30;;;;;;5017613;28;20037;-82
2021/09/03 11:32:39;;;;;;;15.73;11.10;;;31.70;86.90;;;;;;5010075;28;20117;-86
2021/09/03 11:35:06;;;;;;;15.40;11.75;;;31.90;87.40;;;;;;5011218;28;20042;-79
2021/09/03 11:37:39;;;;;;;20.08;11.68;;;31.40;86.30;;;;;;5008498;28;20482;-78
2021/09/03 11:40:16;;;;;;;13.82;11.85;;;31.20;87.40;;;;;;5007072;28;20021;-79
2021/09/03 11:43:11;;;;;;;13.77;11.45;;;31.30;85.10;;;;;;5024561;28;20041;-78
2021/09/03 11:45:40;;;;;;;14.65;10.77;;;31.00;86.10;;;;;;5009898;28;20185;-78
2021/09/03 11:48:11;;;;;;;13.85;10.85;;;31.30;85.40;;;;;;5009804;28;20096;-78
2021/09/03 11:50:45;;;;;;;13.13;10.60;;;31.10;86.10;;;;;;5010393;28;20041;-78
2021/09/03 11:53:24;;;;;;;14.13;10.93;;;31.20;84.70;;;;;;5007806;28;20271;-78
2021/09/03 11:55:50;;;;;;;15.95;11.50;;;30.70;86.30;;;;;;5021368;28;20117;-79
2021/09/03 11:58:24;;;;;;;17.45;11.77;;;30.80;87.20;;;;;;5005670;28;20041;-79
2021/09/03 12:00:53;;;;;;;19.95;12.02;;;31.20;86.50;;;;;;5011579;28;20038;-79
2021/09/03 12:03:34;;;;;;;16.35;12.40;;;31.20;85.10;;;;;;5004073;28;20068;-80
2021/09/03 12:06:05;;;;;;;15.57;11.25;;;31.40;84.50;;;;;;5018175;28;20030;-82
2021/09/03 12:08:35;;;;;;;12.52;11.15;;;31.70;85.60;;;;;;4994940;28;20074;-84
2021/09/03 12:11:12;;;;;;;13.40;11.70;;;31.90;83.00;;;;;;5007868;28;20029;-84
2021/09/03 12:13:43;;;;;;;18.00;11.13;;;31.70;83.40;;;;;;5016319;28;20018;-83
2021/09/03 12:16:16;;;;;;;15.13;11.23;;;32.20;82.50;;;;;;5020927;28;20033;-82
2021/09/03 12:18:44;;;;;;;14.18;9.90;;;32.70;81.40;;;;;;5010694;28;20030;-84
2021/09/03 12:21:25;;;;;;;11.68;10.10;;;33.30;79.80;;;;;;5020617;28;20030;-83
2021/09/03 12:23:53;;;;;;;12.40;9.63;;;33.50;78.50;;;;;;5013493;28;20044;-84
2021/09/03 12:26:54;;;;;;;14.10;10.30;;;32.70;78.50;;;;;;5017741;28;20439;-83
2021/09/03 12:29:29;;;;;;;11.18;9.50;;;32.10;79.20;;;;;;5001691;28;20565;-83
2021/09/03 12:32:00;;;;;;;15.43;10.20;;;32.50;80.50;;;;;;5010139;28;20026;-83
2021/09/03 12:34:28;;;;;;;10.80;8.88;;;32.60;79.00;;;;;;5022994;28;20045;-83
2021/09/03 12:37:08;;;;;;;13.48;11.00;;;32.20;81.10;;;;;;5019918;28;20014;-81